createdAt,value
2018-10-06T00:02:22.520Z,96979.91
2018-10-06T00:04:49.912Z,96972.84
2018-10-06T00:07:17.207Z,96979.36
2018-10-06T00:09:44.544Z,96978.59
2018-10-06T00:12:11.806Z,96978.34
2018-10-06T00:14:39.144Z,96977.67
2018-10-06T00:17:06.493Z,96981.93
2018-10-06T00:19:33.830Z,96972.28
2018-10-06T00:22:01.190Z,96972.28
2018-10-06T00:24:28.523Z,96970.30
2018-10-06T00:26:55.857Z,96970.47
2018-10-06T00:29:23.207Z,96959.03
2018-10-06T00:31:50.599Z,96966.20
2018-10-06T00:34:17.969Z,96968.95
2018-10-06T00:36:45.443Z,96969.41
2018-10-06T00:39:12.786Z,96964.15
2018-10-06T00:41:40.116Z,96968.05
2018-10-06T00:44:07.426Z,96950.77
2018-10-06T00:46:34.937Z,96969.61
2018-10-06T00:49:02.266Z,96973.53
2018-10-06T00:51:29.654Z,96976.83
2018-10-06T00:53:56.948Z,96971.09
2018-10-06T00:56:24.225Z,96968.05
2018-10-06T00:58:51.539Z,96962.59
2018-10-06T01:01:18.821Z,96962.62
2018-10-06T01:03:46.102Z,96952.90
2018-10-06T01:06:13.440Z,96946.50
2018-10-06T01:08:40.863Z,96948.83
2018-10-06T01:11:08.150Z,96949.01
2018-10-06T01:13:35.458Z,96937.63
2018-10-06T01:16:02.810Z,96935.98
2018-10-06T01:18:30.177Z,96925.50
2018-10-06T01:20:57.504Z,96923.95
2018-10-06T01:23:24.789Z,96924.27
2018-10-06T01:25:52.164Z,96922.72
2018-10-06T01:28:19.545Z,96923.41
2018-10-06T01:30:46.937Z,96923.61
2018-10-06T01:33:14.383Z,96924.31
2018-10-06T01:35:41.654Z,96916.84
2018-10-06T01:38:09.001Z,96913.59
2018-10-06T01:40:36.393Z,96908.88
2018-10-06T01:43:03.886Z,96910.27
2018-10-06T01:45:31.228Z,96909.98
2018-10-06T01:47:58.590Z,96921.39
2018-10-06T01:50:25.885Z,96911.64
2018-10-06T01:52:53.229Z,96910.86
2018-10-06T01:55:20.532Z,96914.05
2018-10-06T01:57:47.873Z,96907.42
2018-10-06T02:00:15.232Z,96908.73
2018-10-06T02:02:42.623Z,96910.80
2018-10-06T02:05:09.984Z,96912.67
2018-10-06T02:07:37.280Z,96908.70
2018-10-06T02:10:05.258Z,96805.14
2018-10-06T02:12:32.603Z,96903.77
2018-10-06T02:14:59.977Z,96902.46
2018-10-06T02:17:27.271Z,96906.53
2018-10-06T02:19:54.581Z,96914.90
2018-10-06T02:22:21.805Z,96905.16
2018-10-06T02:24:49.067Z,96903.20
2018-10-06T02:27:16.365Z,96898.86
2018-10-06T02:29:43.690Z,96901.98
2018-10-06T02:32:11.016Z,96908.78
2018-10-06T02:34:38.277Z,96911.56
2018-10-06T02:37:06.029Z,96904.48
2018-10-06T02:39:33.395Z,96901.41
2018-10-06T02:42:00.895Z,96905.16
2018-10-06T02:44:28.208Z,96898.17
2018-10-06T02:46:55.514Z,96900.08
2018-10-06T02:49:22.840Z,96893.74
2018-10-06T02:51:50.198Z,96879.00
2018-10-06T02:54:17.754Z,96877.98
2018-10-06T02:56:45.039Z,96884.01
2018-10-06T02:59:12.347Z,96876.17
2018-10-06T03:01:39.608Z,96882.41
2018-10-06T03:04:07.020Z,96874.45
2018-10-06T03:06:34.401Z,96871.71
2018-10-06T03:09:01.733Z,96870.55
2018-10-06T03:11:29.095Z,96875.77
2018-10-06T03:13:56.489Z,96875.33
2018-10-06T03:16:24.112Z,96881.06
2018-10-06T03:18:51.458Z,96873.14
2018-10-06T03:21:18.798Z,96882.34
2018-10-06T03:23:46.102Z,96880.48
2018-10-06T03:26:13.473Z,96878.95
2018-10-06T03:28:40.854Z,96879.95
2018-10-06T03:31:08.176Z,96876.92
2018-10-06T03:33:35.461Z,96874.83
2018-10-06T03:36:02.806Z,96873.95
2018-10-06T03:38:30.126Z,96867.75
2018-10-06T03:40:57.418Z,96868.34
2018-10-06T03:43:24.751Z,96868.34
2018-10-06T03:45:52.051Z,96861.20
2018-10-06T03:48:19.343Z,96857.83
2018-10-06T03:50:46.750Z,96859.27
2018-10-06T03:53:14.373Z,96863.38
2018-10-06T03:55:41.687Z,96867.59
2018-10-06T03:58:09.110Z,96861.04
2018-10-06T04:00:36.414Z,96858.95
2018-10-06T04:03:03.800Z,96852.12
2018-10-06T04:05:31.125Z,96856.73
2018-10-06T04:07:58.507Z,96858.19
2018-10-06T04:10:25.822Z,96853.45
2018-10-06T04:12:53.164Z,96862.25
2018-10-06T04:15:20.502Z,96853.61
2018-10-06T04:17:47.864Z,96843.35
2018-10-06T04:20:15.186Z,96847.81
2018-10-06T04:22:42.523Z,96844.07
2018-10-06T04:25:09.890Z,96844.63
2018-10-06T04:27:37.284Z,96842.48
2018-10-06T04:30:05.963Z,96842.85
2018-10-06T04:32:33.368Z,96838.05
2018-10-06T04:35:00.809Z,96841.80
2018-10-06T04:37:28.089Z,96844.63
2018-10-06T04:39:55.481Z,96841.07
2018-10-06T04:42:22.781Z,96839.04
2018-10-06T04:44:50.169Z,96839.57
2018-10-06T04:47:17.549Z,96840.57
2018-10-06T04:49:44.812Z,96835.02
2018-10-06T04:52:12.091Z,96821.08
2018-10-06T04:54:39.374Z,96825.51
2018-10-06T04:57:06.651Z,96821.83
2018-10-06T04:59:34.061Z,96817.65
2018-10-06T05:02:01.462Z,96820.02
2018-10-06T05:04:28.795Z,96812.66
2018-10-06T05:06:56.078Z,96811.78
2018-10-06T05:09:24.002Z,96814.78
2018-10-06T05:11:51.360Z,96819.00
2018-10-06T05:14:18.692Z,96823.35
2018-10-06T05:16:46.229Z,96820.98
2018-10-06T05:19:13.716Z,96820.42
2018-10-06T05:21:41.041Z,96815.30
2018-10-06T05:24:08.634Z,96817.08
2018-10-06T05:26:35.983Z,96821.23
2018-10-06T05:29:03.313Z,96822.27
2018-10-06T05:31:30.709Z,96824.35
2018-10-06T05:33:58.058Z,96828.47
2018-10-06T05:36:25.375Z,96830.80
2018-10-06T05:38:52.689Z,96821.70
2018-10-06T05:41:20.018Z,96822.34
2018-10-06T05:43:47.331Z,96832.05
2018-10-06T05:46:14.634Z,96824.30
2018-10-06T05:48:41.929Z,96823.88
2018-10-06T05:51:09.273Z,96831.93
2018-10-06T05:53:36.634Z,96829.63
2018-10-06T05:56:03.966Z,96831.65
2018-10-06T05:58:31.274Z,96838.33
2018-10-06T06:00:58.622Z,96760.11
2018-10-06T06:03:25.930Z,96838.30
2018-10-06T06:05:53.229Z,96836.17
2018-10-06T06:08:20.462Z,96837.58
2018-10-06T06:10:47.774Z,96846.94
2018-10-06T06:13:15.069Z,96850.34
2018-10-06T06:15:42.393Z,96850.06
2018-10-06T06:18:09.752Z,96844.69
2018-10-06T06:20:37.060Z,96851.77
2018-10-06T06:23:04.915Z,96848.05
2018-10-06T06:25:32.301Z,96847.98
2018-10-06T06:27:59.713Z,96850.97
2018-10-06T06:30:27.038Z,96859.50
2018-10-06T06:32:54.258Z,96861.31
2018-10-06T06:35:21.561Z,96853.58
2018-10-06T06:37:48.985Z,96856.16
2018-10-06T06:40:16.295Z,96865.38
2018-10-06T06:42:43.647Z,96869.13
2018-10-06T06:45:11.056Z,96867.47
2018-10-06T06:47:38.256Z,96865.91
2018-10-06T06:50:05.936Z,96863.36
2018-10-06T06:52:33.206Z,96859.50
2018-10-06T06:55:00.544Z,96869.19
2018-10-06T06:57:28.085Z,96869.73
2018-10-06T06:59:55.413Z,96870.08
2018-10-06T07:02:22.690Z,96861.52
2018-10-06T07:04:50.008Z,96867.64
2018-10-06T07:07:17.320Z,96869.20
2018-10-06T07:09:44.610Z,96867.19
2018-10-06T07:12:11.954Z,96869.05
2018-10-06T07:14:39.256Z,96867.34
2018-10-06T07:17:06.538Z,96859.58
2018-10-06T07:19:33.952Z,96863.13
2018-10-06T07:22:01.219Z,96867.34
2018-10-06T07:24:28.533Z,96864.70
2018-10-06T07:26:55.924Z,96863.63
2018-10-06T07:29:23.318Z,96861.17
2018-10-06T07:31:50.603Z,96867.09
2018-10-06T07:34:17.914Z,96872.73
2018-10-06T07:36:45.290Z,96853.59
2018-10-06T07:39:12.659Z,96870.58
2018-10-06T07:44:58.690Z,96871.06
2018-10-06T07:47:26.158Z,96865.31
2018-10-06T07:49:53.536Z,96861.62
2018-10-06T07:52:20.903Z,96866.75
2018-10-06T07:54:48.252Z,96857.39
2018-10-06T07:57:15.566Z,96862.91
2018-10-06T07:59:42.952Z,96855.11
2018-10-06T08:02:10.505Z,96852.23
2018-10-06T08:04:37.813Z,96848.34
2018-10-06T08:07:05.194Z,96846.50
2018-10-06T08:09:32.584Z,96839.66
2018-10-06T08:12:00.149Z,96839.30
2018-10-06T08:14:27.623Z,96841.48
2018-10-06T08:16:55.138Z,96833.19
2018-10-06T08:19:22.675Z,96827.67
2018-10-06T08:21:50.135Z,96825.19
2018-10-06T08:24:17.622Z,96826.80
2018-10-06T08:26:45.156Z,96825.80
2018-10-06T08:29:12.670Z,96828.16
2018-10-06T08:31:40.071Z,96826.90
2018-10-06T08:34:07.599Z,96828.62
2018-10-06T08:36:35.113Z,96830.91
2018-10-06T08:39:03.328Z,96829.59
2018-10-06T08:41:30.863Z,96824.45
2018-10-06T08:43:58.388Z,96823.25
2018-10-06T08:46:25.802Z,96815.33
2018-10-06T08:48:53.193Z,96807.08
2018-10-06T08:51:20.814Z,96803.89
2018-10-06T08:53:48.319Z,96806.42
2018-10-06T08:56:15.845Z,96798.05
2018-10-06T08:58:43.314Z,96794.24
2018-10-06T09:01:10.848Z,96799.03
2018-10-06T09:03:38.406Z,96799.08
2018-10-06T09:06:05.982Z,96797.77
2018-10-06T09:08:33.460Z,96800.55
2018-10-06T09:11:01.260Z,96794.02
2018-10-06T09:13:28.678Z,96791.27
2018-10-06T09:15:56.196Z,96796.25
2018-10-06T09:18:23.716Z,96791.14
2018-10-06T09:20:51.275Z,96789.84
2018-10-06T09:23:18.695Z,96783.33
2018-10-06T09:25:46.185Z,96788.66
2018-10-06T09:28:13.657Z,96783.81
2018-10-06T09:30:41.099Z,96781.16
2018-10-06T09:33:08.514Z,96783.25
2018-10-06T09:35:35.995Z,96779.02
2018-10-06T09:38:03.437Z,96772.03
2018-10-06T09:40:30.897Z,96764.87
2018-10-06T09:42:58.345Z,96772.08
2018-10-06T09:45:25.750Z,96765.53
2018-10-06T09:47:53.115Z,96762.30
2018-10-06T09:50:20.451Z,96757.66
2018-10-06T09:52:47.933Z,96760.83
2018-10-06T09:55:15.392Z,96759.41
2018-10-06T09:57:42.883Z,96761.24
2018-10-06T10:00:10.301Z,96754.64
2018-10-06T10:02:43.243Z,96754.56
2018-10-06T10:05:16.344Z,96757.70
2018-10-06T10:07:43.718Z,96725.25
2018-10-06T10:10:11.134Z,96755.67
2018-10-06T10:12:38.586Z,96749.85
2018-10-06T10:15:06.030Z,96746.68
2018-10-06T10:17:33.511Z,96750.62
2018-10-06T10:20:00.775Z,96743.06
2018-10-06T10:22:28.396Z,96743.70
2018-10-06T10:24:55.684Z,96743.28
2018-10-06T10:27:23.095Z,96747.06
2018-10-06T10:29:50.517Z,96752.70
2018-10-06T10:32:18.149Z,96739.67
2018-10-06T10:34:45.425Z,96737.16
2018-10-06T10:37:12.811Z,96735.09
2018-10-06T10:39:40.244Z,96725.38
2018-10-06T10:42:07.551Z,96719.48
2018-10-06T10:44:35.021Z,96714.64
2018-10-06T10:47:02.397Z,96712.09
2018-10-06T10:49:29.820Z,96712.44
2018-10-06T10:51:57.063Z,96708.69
2018-10-06T10:54:24.421Z,96707.16
2018-10-06T10:56:51.698Z,96706.67
2018-10-06T10:59:19.094Z,96706.95
2018-10-06T11:01:46.380Z,96693.05
2018-10-06T11:04:13.699Z,96695.23
2018-10-06T11:06:40.979Z,96686.08
2018-10-06T11:09:08.701Z,96690.55
2018-10-06T11:11:36.229Z,96682.55
2018-10-06T11:14:03.605Z,96677.77
2018-10-06T11:16:30.937Z,96668.63
2018-10-06T11:18:58.186Z,96660.20
2018-10-06T11:21:26.173Z,96663.95
2018-10-06T11:23:53.527Z,96651.21
2018-10-06T11:26:20.917Z,96645.02
2018-10-06T11:28:48.250Z,96643.57
2018-10-06T11:31:15.682Z,96641.11
2018-10-06T11:33:43.041Z,96639.72
2018-10-06T11:36:10.498Z,96635.59
2018-10-06T11:38:38.218Z,96635.17
2018-10-06T11:41:05.530Z,96632.98
2018-10-06T11:43:32.814Z,96522.26
2018-10-06T11:46:00.126Z,96631.07
2018-10-06T11:48:27.467Z,96615.15
2018-10-06T11:50:54.901Z,96614.27
2018-10-06T11:53:22.295Z,96612.76
2018-10-06T11:55:49.684Z,96609.54
2018-10-06T11:58:16.925Z,96596.86
2018-10-06T12:00:44.298Z,96594.16
2018-10-06T12:03:11.541Z,96592.43
2018-10-06T12:05:38.917Z,96581.52
2018-10-06T12:08:06.251Z,96572.06
2018-10-06T12:10:33.623Z,96556.63
2018-10-06T12:13:00.941Z,96556.89
2018-10-06T12:15:32.183Z,96554.45
2018-10-06T12:17:59.492Z,96554.89
2018-10-06T12:20:26.879Z,96550.33
2018-10-06T12:22:54.398Z,96545.06
2018-10-06T12:25:21.885Z,96541.89
2018-10-06T12:27:49.184Z,96539.90
2018-10-06T12:30:16.519Z,96537.31
2018-10-06T12:32:43.811Z,96533.28
2018-10-06T12:35:11.251Z,96529.13
2018-10-06T12:37:38.535Z,96525.80
2018-10-06T12:40:05.865Z,96521.09
2018-10-06T12:42:33.427Z,96515.77
2018-10-06T12:45:00.706Z,96512.82
2018-10-06T12:47:28.049Z,96515.38
2018-10-06T12:49:55.406Z,96505.36
2018-10-06T12:52:22.736Z,96503.80
2018-10-06T12:54:50.314Z,96498.77
2018-10-06T12:57:17.627Z,96492.49
2018-10-06T12:59:44.943Z,96480.70
2018-10-06T13:02:12.241Z,96487.55
2018-10-06T13:04:39.630Z,96482.41
2018-10-06T13:07:06.917Z,96479.01
2018-10-06T13:09:34.252Z,96473.25
2018-10-06T13:12:01.667Z,96476.98
2018-10-06T13:14:28.913Z,96463.84
2018-10-06T13:16:56.243Z,96460.94
2018-10-06T13:19:23.643Z,96468.36
2018-10-06T13:21:50.993Z,96462.58
2018-10-06T13:24:18.314Z,96459.44
2018-10-06T13:26:45.710Z,96458.95
2018-10-06T13:29:13.000Z,96446.55
2018-10-06T13:31:40.354Z,96450.50
2018-10-06T13:34:07.638Z,96448.38
2018-10-06T13:36:34.930Z,96449.28
2018-10-06T13:39:02.344Z,96444.52
2018-10-06T13:41:29.755Z,96448.52
2018-10-06T13:43:57.094Z,96443.75
2018-10-06T13:46:24.419Z,96437.77
2018-10-06T13:48:51.670Z,96435.08
2018-10-06T13:51:19.021Z,96440.72
2018-10-06T13:53:46.340Z,96438.72
2018-10-06T13:56:13.680Z,96432.16
2018-10-06T13:58:41.115Z,96427.59
2018-10-06T14:01:08.499Z,96426.20
2018-10-06T14:03:35.847Z,96426.34
2018-10-06T14:06:03.194Z,96420.13
2018-10-06T14:08:30.468Z,96418.00
2018-10-06T14:10:57.806Z,96412.23
2018-10-06T14:13:25.102Z,96421.40
2018-10-06T14:15:52.457Z,96411.17
2018-10-06T14:18:19.754Z,96412.45
2018-10-06T14:20:47.044Z,96406.98
2018-10-06T14:23:14.420Z,96405.64
2018-10-06T14:25:41.682Z,96406.73
2018-10-06T14:28:08.985Z,96410.16
2018-10-06T14:30:36.651Z,96410.92
2018-10-06T14:33:04.018Z,96408.16
2018-10-06T14:35:31.484Z,96406.88
2018-10-06T14:37:58.817Z,96413.28
2018-10-06T14:40:26.174Z,96411.06
2018-10-06T14:42:53.467Z,96409.61
2018-10-06T14:45:20.808Z,96405.31
2018-10-06T14:47:49.093Z,96403.33
2018-10-06T14:50:16.469Z,96399.29
2018-10-06T14:52:43.770Z,96397.27
2018-10-06T14:55:11.105Z,96396.98
2018-10-06T14:57:38.785Z,96386.73
2018-10-06T15:00:06.903Z,96386.52
2018-10-06T15:02:34.234Z,96383.28
2018-10-06T15:05:01.554Z,96388.01
2018-10-06T15:07:28.888Z,96387.38
2018-10-06T15:09:56.158Z,96381.66
2018-10-06T15:12:23.522Z,96381.47
2018-10-06T15:14:50.864Z,96377.43
2018-10-06T15:17:18.240Z,96369.92
2018-10-06T15:19:45.647Z,96375.33
2018-10-06T15:22:12.954Z,96380.37
2018-10-06T15:24:40.803Z,96378.13
2018-10-06T15:27:08.520Z,96375.89
2018-10-06T15:29:36.260Z,96374.02
2018-10-06T15:32:03.892Z,96370.18
2018-10-06T15:34:31.579Z,96369.81
2018-10-06T15:36:59.217Z,96282.62
2018-10-06T15:39:26.896Z,96372.83
2018-10-06T15:41:54.501Z,96371.86
2018-10-06T15:44:22.107Z,96373.56
2018-10-06T15:46:49.720Z,96371.84
2018-10-06T15:49:17.203Z,96370.83
2018-10-06T15:51:44.814Z,96371.41
2018-10-06T15:54:12.269Z,96370.45
2018-10-06T15:56:39.882Z,96367.34
2018-10-06T15:59:07.484Z,96363.48
2018-10-06T16:01:34.977Z,96371.36
2018-10-06T16:04:02.559Z,96371.17
2018-10-06T16:06:30.112Z,96366.39
2018-10-06T16:08:57.715Z,96366.20
2018-10-06T16:11:25.318Z,96364.51
2018-10-06T16:13:52.833Z,96364.09
2018-10-06T16:16:20.424Z,96362.98
2018-10-06T16:18:47.988Z,96367.19
2018-10-06T16:21:15.525Z,96362.33
2018-10-06T16:23:43.112Z,96360.22
2018-10-06T16:26:10.782Z,96355.92
2018-10-06T16:28:38.348Z,96356.06
2018-10-06T16:31:06.334Z,96359.65
2018-10-06T16:33:33.868Z,96357.09
2018-10-06T16:36:01.393Z,96364.72
2018-10-06T16:38:28.924Z,96364.78
2018-10-06T16:40:56.371Z,96364.80
2018-10-06T16:43:23.993Z,96361.19
2018-10-06T16:45:51.642Z,96368.40
2018-10-06T16:48:19.150Z,96364.56
2018-10-06T16:50:46.677Z,96310.53
2018-10-06T16:53:14.170Z,96147.92
2018-10-06T16:55:41.676Z,96366.66
2018-10-06T16:58:09.145Z,96368.62
2018-10-06T17:00:36.667Z,96364.76
2018-10-06T17:03:04.155Z,96366.16
2018-10-06T17:05:31.612Z,96364.84
2018-10-06T17:07:59.122Z,96360.72
2018-10-06T17:10:26.582Z,96352.52
2018-10-06T17:12:54.132Z,96349.61
2018-10-06T17:15:21.556Z,96350.58
2018-10-06T17:17:49.084Z,96361.30
2018-10-06T17:20:16.713Z,96361.67
2018-10-06T17:22:44.293Z,96358.73
2018-10-06T17:25:11.867Z,96360.56
2018-10-06T17:27:39.533Z,96362.09
2018-10-06T17:30:07.468Z,96361.94
2018-10-06T17:32:35.028Z,96365.81
2018-10-06T17:35:02.715Z,96367.88
2018-10-06T17:37:30.246Z,96366.34
2018-10-06T17:39:57.849Z,96364.48
2018-10-06T17:42:25.533Z,96363.84
2018-10-06T17:44:53.127Z,96366.17
2018-10-06T17:47:20.607Z,96371.25
2018-10-06T17:49:48.204Z,96369.25
2018-10-06T17:52:15.756Z,96368.25
2018-10-06T17:54:43.349Z,96373.55
2018-10-06T17:57:10.909Z,96376.67
2018-10-06T17:59:38.390Z,96372.32
2018-10-06T18:02:06.082Z,96379.92
2018-10-06T18:04:33.701Z,96386.55
2018-10-06T18:07:01.285Z,96379.92
2018-10-06T18:09:28.829Z,96375.88
2018-10-06T18:11:56.359Z,96373.05
2018-10-06T18:14:24.054Z,96372.24
2018-10-06T18:16:51.543Z,96367.06
2018-10-06T18:19:18.966Z,96366.79
2018-10-06T18:21:46.455Z,96371.63
2018-10-06T18:24:13.915Z,96374.13
2018-10-06T18:26:41.546Z,96367.06
2018-10-06T18:29:09.180Z,96374.28
2018-10-06T18:31:36.655Z,96367.86
2018-10-06T18:34:04.227Z,96371.45
2018-10-06T18:36:32.045Z,96372.16
2018-10-06T18:38:59.375Z,96376.11
2018-10-06T18:41:26.882Z,96380.47
2018-10-06T18:43:54.476Z,96373.45
2018-10-06T18:46:21.950Z,96379.13
2018-10-06T18:48:49.465Z,96381.61
2018-10-06T18:51:16.992Z,96375.84
2018-10-06T18:53:44.547Z,96375.80
2018-10-06T18:56:12.033Z,96378.39
2018-10-06T18:58:39.684Z,96384.02
2018-10-06T19:01:07.264Z,96389.54
2018-10-06T19:03:34.828Z,96387.23
2018-10-06T19:06:02.397Z,96387.22
2018-10-06T19:08:29.999Z,96388.06
2018-10-06T19:10:57.568Z,96390.41
2018-10-06T19:13:25.166Z,96390.73
2018-10-06T19:15:52.698Z,96390.17
2018-10-06T19:18:20.157Z,96393.06
2018-10-06T19:20:47.615Z,96393.88
2018-10-06T19:23:15.146Z,96396.30
2018-10-06T19:25:42.694Z,96397.08
2018-10-06T19:28:10.098Z,96389.73
2018-10-06T19:30:37.616Z,96393.78
2018-10-06T19:33:05.265Z,96395.95
2018-10-06T19:35:32.732Z,96401.90
2018-10-06T19:38:00.235Z,96403.30
2018-10-06T19:40:27.653Z,96404.42
2018-10-06T19:42:55.407Z,96407.28
2018-10-06T19:45:23.042Z,96406.38
2018-10-06T19:47:50.540Z,96410.75
2018-10-06T19:50:18.064Z,96408.23
2018-10-06T19:52:45.794Z,96405.57
2018-10-06T19:55:13.394Z,96412.30
2018-10-06T19:57:41.743Z,96412.01
2018-10-06T20:00:08.899Z,96415.58
2018-10-06T20:02:36.468Z,96415.80
2018-10-06T20:05:04.394Z,96416.20
2018-10-06T20:07:32.004Z,96412.06
2018-10-06T20:09:59.586Z,96410.53
2018-10-06T20:12:27.208Z,96410.81
2018-10-06T20:14:54.873Z,96407.66
2018-10-06T20:17:22.574Z,96411.42
2018-10-06T20:19:50.174Z,96409.41
2018-10-06T20:22:17.737Z,96408.51
2018-10-06T20:24:45.317Z,96416.77
2018-10-06T20:27:12.989Z,96412.02
2018-10-06T20:29:40.675Z,96416.13
2018-10-06T20:32:08.334Z,96414.59
2018-10-06T20:34:36.024Z,96414.35
2018-10-06T20:37:03.426Z,96405.42
2018-10-06T20:39:30.797Z,96413.89
2018-10-06T20:41:58.325Z,96412.63
2018-10-06T20:44:25.774Z,96412.70
2018-10-06T20:46:53.154Z,96416.07
2018-10-06T20:49:20.495Z,96426.03
2018-10-06T20:51:47.852Z,96419.81
2018-10-06T20:54:15.185Z,96423.34
2018-10-06T20:56:42.554Z,96417.92
2018-10-06T20:59:09.891Z,96420.20
2018-10-06T21:01:37.439Z,96415.30
2018-10-06T21:04:04.793Z,96418.05
2018-10-06T21:06:32.154Z,96414.42
2018-10-06T21:08:59.517Z,96411.66
2018-10-06T21:11:26.848Z,96415.02
2018-10-06T21:13:54.216Z,96414.05
2018-10-06T21:16:21.530Z,96406.00
2018-10-06T21:18:48.860Z,96410.57
2018-10-06T21:21:16.214Z,96407.14
2018-10-06T21:23:43.632Z,96409.55
2018-10-06T21:26:11.042Z,96414.09
2018-10-06T21:28:38.438Z,96411.01
2018-10-06T21:31:05.711Z,96412.07
2018-10-06T21:33:33.046Z,96408.23
2018-10-06T21:36:00.843Z,96405.31
2018-10-06T21:38:28.566Z,96408.39
2018-10-06T21:40:56.655Z,96404.72
2018-10-06T21:43:23.956Z,96407.83
2018-10-06T21:45:51.298Z,96407.06
2018-10-06T21:48:18.612Z,96403.34
2018-10-06T21:50:46.160Z,96404.45
2018-10-06T21:53:13.464Z,96406.89
2018-10-06T21:55:40.792Z,96410.02
2018-10-06T21:58:08.236Z,96405.01
2018-10-06T22:00:35.706Z,96401.29
2018-10-06T22:03:03.112Z,96399.80
2018-10-06T22:05:30.517Z,96402.87
2018-10-06T22:07:57.889Z,96399.33
2018-10-06T22:10:25.283Z,96402.01
2018-10-06T22:12:55.038Z,96393.48
2018-10-06T22:15:22.608Z,96397.02
2018-10-06T22:17:49.900Z,96389.86
2018-10-06T22:20:17.266Z,96390.53
2018-10-06T22:22:44.621Z,96391.64
2018-10-06T22:25:11.989Z,96392.30
2018-10-06T22:27:39.352Z,96391.20
2018-10-06T22:30:07.320Z,96390.41
2018-10-06T22:32:34.754Z,96390.98
2018-10-06T22:35:02.134Z,96400.17
2018-10-06T22:37:29.513Z,96403.79
2018-10-06T22:39:57.208Z,96397.91
2018-10-06T22:42:24.743Z,96399.13
2018-10-06T22:44:52.525Z,96399.62
2018-10-06T22:47:20.187Z,96377.84
2018-10-06T22:49:47.791Z,96396.28
2018-10-06T22:52:15.369Z,96389.69
2018-10-06T22:54:42.851Z,96394.63
2018-10-06T22:57:10.462Z,96392.41
2018-10-06T22:59:38.188Z,96390.84
2018-10-06T23:02:05.992Z,96390.30
2018-10-06T23:04:33.727Z,96394.25
2018-10-06T23:07:01.414Z,96390.28
2018-10-06T23:09:29.038Z,96389.63
2018-10-06T23:11:56.642Z,96381.37
2018-10-06T23:14:24.346Z,96381.03
2018-10-06T23:16:52.095Z,96380.70
2018-10-06T23:19:19.474Z,96381.26
2018-10-06T23:21:46.821Z,96379.27
2018-10-06T23:24:14.237Z,96383.69
2018-10-06T23:26:41.585Z,96384.11
2018-10-06T23:29:08.902Z,96383.01
2018-10-06T23:31:36.269Z,96383.77
2018-10-06T23:34:03.609Z,96388.52
2018-10-06T23:36:30.969Z,96387.30
2018-10-06T23:38:58.363Z,96393.31
2018-10-06T23:41:25.728Z,96385.01
2018-10-06T23:43:53.012Z,96391.62
2018-10-06T23:46:20.326Z,96390.59
2018-10-06T23:48:47.681Z,96387.28
2018-10-06T23:51:16.090Z,96387.93
2018-10-06T23:53:43.433Z,96384.65
2018-10-06T23:56:10.954Z,96383.75
2018-10-06T23:58:38.318Z,96384.81
